createdAt,value
2018-10-21T00:00:50.657Z,80.60
2018-10-21T00:01:55.114Z,80.55
2018-10-21T00:02:59.612Z,80.63
2018-10-21T00:04:04.477Z,80.83
2018-10-21T00:05:10.168Z,80.96
2018-10-21T00:06:14.851Z,80.86
2018-10-21T00:07:19.257Z,80.84
2018-10-21T00:08:23.621Z,80.74
2018-10-21T00:09:27.996Z,80.65
2018-10-21T00:10:33.152Z,80.27
2018-10-21T00:11:38.211Z,80.40
2018-10-21T00:12:42.876Z,80.17
2018-10-21T00:13:47.244Z,80.09
2018-10-21T00:14:53.355Z,80.13
2018-10-21T00:15:58.371Z,80.12
2018-10-21T00:17:02.763Z,80.26
2018-10-21T00:18:07.159Z,80.33
2018-10-21T00:19:12.262Z,80.23
2018-10-21T00:20:16.615Z,80.27
2018-10-21T00:21:20.975Z,80.33
2018-10-21T00:22:25.388Z,80.13
2018-10-21T00:23:29.902Z,80.27
2018-10-21T00:24:34.282Z,80.30
2018-10-21T00:25:39.120Z,80.08
2018-10-21T00:26:44.210Z,80.26
2018-10-21T00:27:48.619Z,80.43
2018-10-21T00:28:53.052Z,80.38
2018-10-21T00:29:57.486Z,80.34
2018-10-21T00:31:01.939Z,80.62
2018-10-21T00:32:06.684Z,80.56
2018-10-21T00:33:11.850Z,80.39
2018-10-21T00:34:16.230Z,80.45
2018-10-21T00:35:21.492Z,80.25
2018-10-21T00:36:26.512Z,79.98
2018-10-21T00:37:31.773Z,80.17
2018-10-21T00:38:37.488Z,80.18
2018-10-21T00:39:41.927Z,79.93
2018-10-21T00:40:46.283Z,79.98
2018-10-21T00:41:50.708Z,80.10
2018-10-21T00:42:55.105Z,80.00
2018-10-21T00:43:59.519Z,80.12
2018-10-21T00:45:04.243Z,79.94
2018-10-21T00:46:09.414Z,79.96
2018-10-21T00:47:13.922Z,79.88
2018-10-21T00:48:18.443Z,79.65
2018-10-21T00:49:23.000Z,80.05
2018-10-21T00:50:27.373Z,79.92
2018-10-21T00:51:33.025Z,79.94
2018-10-21T00:52:37.419Z,79.99
2018-10-21T00:53:41.830Z,79.94
2018-10-21T00:54:46.204Z,80.07
2018-10-21T00:55:50.612Z,80.21
2018-10-21T00:56:55.057Z,80.14
2018-10-21T00:57:59.872Z,80.20
2018-10-21T00:59:04.896Z,80.35
2018-10-21T01:00:11.731Z,80.77
2018-10-21T01:01:16.100Z,80.69
2018-10-21T01:02:22.102Z,80.82
2018-10-21T01:03:26.515Z,80.88
2018-10-21T01:04:30.893Z,80.77
2018-10-21T01:05:35.321Z,80.76
2018-10-21T01:06:39.846Z,80.82
2018-10-21T01:07:44.199Z,80.94
2018-10-21T01:08:48.564Z,80.95
2018-10-21T01:09:53.233Z,81.01
2018-10-21T01:10:58.785Z,81.02
2018-10-21T01:12:03.180Z,81.20
2018-10-21T01:13:07.526Z,81.01
2018-10-21T01:14:12.065Z,81.01
2018-10-21T01:15:17.130Z,80.67
2018-10-21T01:16:21.578Z,80.91
2018-10-21T01:17:26.264Z,81.17
2018-10-21T01:18:30.636Z,81.26
2018-10-21T01:19:35.069Z,81.38
2018-10-21T01:20:39.452Z,81.66
2018-10-21T01:21:44.469Z,81.65
2018-10-21T01:22:48.960Z,81.83
2018-10-21T01:23:53.614Z,81.84
2018-10-21T01:24:58.039Z,81.82
2018-10-21T01:26:02.983Z,81.82
2018-10-21T01:27:07.502Z,81.60
2018-10-21T01:28:11.944Z,81.87
2018-10-21T01:29:16.477Z,81.77
2018-10-21T01:30:22.598Z,81.80
2018-10-21T01:31:26.951Z,81.71
2018-10-21T01:32:31.521Z,81.85
2018-10-21T01:33:36.773Z,81.83
2018-10-21T01:34:41.889Z,82.00
2018-10-21T01:35:46.332Z,81.76
2018-10-21T01:36:51.136Z,82.03
2018-10-21T01:37:55.647Z,82.23
2018-10-21T01:39:00.105Z,81.83
2018-10-21T01:40:41.419Z,81.87
2018-10-21T01:41:45.780Z,82.18
2018-10-21T01:42:50.266Z,82.10
2018-10-21T01:43:55.031Z,82.24
2018-10-21T01:44:59.423Z,82.10
2018-10-21T01:46:04.195Z,82.31
2018-10-21T01:47:09.821Z,82.00
2018-10-21T01:48:15.401Z,81.94
2018-10-21T01:49:19.809Z,82.06
2018-10-21T01:50:25.138Z,81.92
2018-10-21T01:51:29.549Z,82.03
2018-10-21T01:52:33.960Z,82.33
2018-10-21T01:53:38.337Z,82.53
2018-10-21T01:54:43.690Z,82.37
2018-10-21T01:55:48.093Z,82.57
2018-10-21T01:56:53.070Z,82.41
2018-10-21T01:57:58.171Z,82.59
2018-10-21T01:59:02.584Z,82.97
2018-10-21T02:00:07.044Z,82.58
2018-10-21T02:01:11.661Z,82.84
2018-10-21T02:02:16.005Z,82.79
2018-10-21T02:03:20.411Z,82.50
2018-10-21T02:04:26.574Z,82.78
2018-10-21T02:05:31.270Z,82.44
2018-10-21T02:06:35.654Z,82.86
2018-10-21T02:07:40.051Z,82.89
2018-10-21T02:08:44.699Z,83.09
2018-10-21T02:09:49.429Z,83.42
2018-10-21T02:10:53.835Z,83.49
2018-10-21T02:11:58.233Z,83.47
2018-10-21T02:13:02.717Z,83.33
2018-10-21T02:14:07.182Z,83.31
2018-10-21T02:15:12.720Z,83.67
2018-10-21T02:16:17.100Z,83.71
2018-10-21T02:17:21.524Z,83.95
2018-10-21T02:18:26.010Z,84.46
2018-10-21T02:19:31.518Z,84.19
2018-10-21T02:20:36.012Z,84.58
2018-10-21T02:21:40.782Z,84.61
2018-10-21T02:22:45.802Z,84.36
2018-10-21T02:23:50.174Z,84.50
2018-10-21T02:24:54.527Z,84.75
2018-10-21T02:25:58.887Z,84.23
2018-10-21T02:27:03.244Z,84.34
2018-10-21T02:28:08.312Z,84.33
2018-10-21T02:29:12.712Z,84.16
2018-10-21T02:30:18.138Z,83.91
2018-10-21T02:31:22.513Z,83.79
2018-10-21T02:32:26.854Z,83.84
2018-10-21T02:33:31.315Z,84.16
2018-10-21T02:34:35.935Z,84.09
2018-10-21T02:35:40.348Z,83.77
2018-10-21T02:36:44.717Z,83.98
2018-10-21T02:37:49.329Z,83.92
2018-10-21T02:38:53.721Z,84.04
2018-10-21T02:39:58.184Z,84.37
2018-10-21T02:41:16.961Z,84.10
2018-10-21T02:42:21.879Z,84.06
2018-10-21T02:43:26.272Z,83.93
2018-10-21T02:44:30.652Z,83.96
2018-10-21T02:45:35.029Z,83.96
2018-10-21T02:46:40.078Z,83.91
2018-10-21T02:47:44.779Z,84.09
2018-10-21T02:48:49.349Z,84.27
2018-10-21T02:49:54.691Z,83.99
2018-10-21T02:50:59.097Z,83.62
2018-10-21T02:52:07.408Z,84.05
2018-10-21T02:53:11.888Z,83.80
2018-10-21T02:54:16.729Z,83.88
2018-10-21T02:55:21.072Z,84.02
2018-10-21T02:56:25.483Z,84.04
2018-10-21T02:57:29.900Z,84.29
2018-10-21T02:58:34.289Z,84.38
2018-10-21T02:59:39.398Z,84.00
2018-10-21T03:00:44.468Z,84.38
2018-10-21T03:01:48.862Z,84.28
2018-10-21T03:02:53.254Z,84.14
2018-10-21T03:03:57.635Z,84.24
2018-10-21T03:05:02.158Z,84.16
2018-10-21T03:06:06.570Z,84.21
2018-10-21T03:07:12.171Z,84.29
2018-10-21T03:08:16.668Z,83.85
2018-10-21T03:09:21.127Z,83.89
2018-10-21T03:10:25.759Z,83.93
2018-10-21T03:11:30.962Z,84.11
2018-10-21T03:12:35.353Z,83.55
2018-10-21T03:13:40.054Z,83.74
2018-10-21T03:14:44.428Z,83.92
2018-10-21T03:15:48.822Z,84.13
2018-10-21T03:16:53.212Z,84.41
2018-10-21T03:17:57.595Z,84.04
2018-10-21T03:19:02.039Z,84.65
2018-10-21T03:20:06.729Z,84.80
2018-10-21T03:21:12.832Z,84.22
2018-10-21T03:22:17.225Z,84.63
2018-10-21T03:23:21.615Z,84.95
2018-10-21T03:24:26.796Z,84.72
2018-10-21T03:25:31.180Z,84.71
2018-10-21T03:26:35.625Z,84.61
2018-10-21T03:27:40.159Z,84.79
2018-10-21T03:28:44.559Z,84.88
2018-10-21T03:29:48.924Z,84.85
2018-10-21T03:30:53.469Z,84.97
2018-10-21T03:31:58.715Z,85.19
2018-10-21T03:33:03.999Z,84.60
2018-10-21T03:34:09.218Z,84.63
2018-10-21T03:35:13.465Z,84.84
2018-10-21T03:36:17.873Z,84.66
2018-10-21T03:37:22.281Z,84.94
2018-10-21T03:38:26.694Z,85.04
2018-10-21T03:39:31.534Z,85.10
2018-10-21T03:40:35.967Z,85.21
2018-10-21T03:41:40.344Z,84.98
2018-10-21T03:42:44.902Z,85.47
2018-10-21T03:43:49.357Z,85.08
2018-10-21T03:44:53.785Z,84.84
2018-10-21T03:45:58.591Z,85.09
2018-10-21T03:47:02.998Z,85.18
2018-10-21T03:48:07.396Z,84.92
2018-10-21T03:49:12.931Z,85.14
2018-10-21T03:50:17.465Z,85.27
2018-10-21T03:51:21.848Z,84.96
2018-10-21T03:52:26.555Z,85.19
2018-10-21T03:53:30.966Z,84.58
2018-10-21T03:54:35.440Z,84.43
2018-10-21T03:55:41.203Z,84.43
2018-10-21T03:56:45.641Z,84.60
2018-10-21T03:57:50.080Z,84.88
2018-10-21T03:58:54.751Z,84.57
2018-10-21T03:59:59.213Z,84.26
2018-10-21T04:01:03.614Z,84.93
2018-10-21T04:02:08.349Z,84.55
2018-10-21T04:03:12.718Z,84.18
2018-10-21T04:04:17.209Z,84.34
2018-10-21T04:05:21.817Z,84.07
2018-10-21T04:06:26.172Z,84.58
2018-10-21T04:07:30.604Z,84.13
2018-10-21T04:08:35.136Z,84.45
2018-10-21T04:09:39.844Z,84.22
2018-10-21T04:10:44.253Z,84.17
2018-10-21T04:11:48.911Z,84.08
2018-10-21T04:12:53.253Z,84.17
2018-10-21T04:13:57.608Z,84.58
2018-10-21T04:15:02.027Z,83.95
2018-10-21T04:16:06.485Z,84.42
2018-10-21T04:17:11.379Z,84.58
2018-10-21T04:18:16.102Z,84.10
2018-10-21T04:19:20.560Z,84.36
2018-10-21T04:20:25.859Z,84.38
2018-10-21T04:21:30.210Z,84.23
2018-10-21T04:22:38.802Z,84.76
2018-10-21T04:23:43.353Z,84.45
2018-10-21T04:24:47.989Z,84.48
2018-10-21T04:25:52.383Z,84.76
2018-10-21T04:26:56.767Z,84.61
2018-10-21T04:28:02.089Z,85.03
2018-10-21T04:29:06.420Z,84.96
2018-10-21T04:30:11.387Z,85.13
2018-10-21T04:31:16.097Z,85.49
2018-10-21T04:32:20.515Z,85.47
2018-10-21T04:33:54.846Z,85.58
2018-10-21T04:34:59.238Z,85.41
2018-10-21T04:36:03.617Z,85.32
2018-10-21T04:37:13.300Z,85.09
2018-10-21T04:38:24.514Z,85.18
2018-10-21T04:39:34.178Z,85.48
2018-10-21T04:40:38.570Z,85.10
2018-10-21T04:41:42.981Z,85.46
2018-10-21T04:42:47.948Z,85.35
2018-10-21T04:43:52.650Z,85.00
2018-10-21T04:44:57.204Z,84.70
2018-10-21T04:46:01.561Z,84.77
2018-10-21T04:47:06.190Z,85.21
2018-10-21T04:48:10.984Z,85.10
2018-10-21T04:49:15.398Z,85.42
2018-10-21T04:50:20.121Z,84.65
2018-10-21T04:51:24.488Z,85.01
2018-10-21T04:52:29.919Z,85.14
2018-10-21T04:53:34.304Z,85.15
2018-10-21T04:54:38.675Z,84.89
2018-10-21T04:55:43.562Z,85.09
2018-10-21T04:56:48.319Z,84.85
2018-10-21T04:57:52.679Z,84.53
2018-10-21T04:58:57.316Z,84.90
2018-10-21T05:00:01.833Z,84.67
2018-10-21T05:01:06.417Z,84.89
2018-10-21T05:02:11.246Z,84.21
2018-10-21T05:03:15.913Z,84.49
2018-10-21T05:04:20.295Z,84.80
2018-10-21T05:05:24.660Z,84.05
2018-10-21T05:06:29.181Z,84.01
2018-10-21T05:07:33.651Z,84.17
2018-10-21T05:08:38.010Z,84.64
2018-10-21T05:09:42.719Z,84.48
2018-10-21T05:10:47.076Z,84.81
2018-10-21T05:11:51.437Z,85.11
2018-10-21T05:12:55.878Z,85.23
2018-10-21T05:14:00.303Z,84.92
2018-10-21T05:15:04.754Z,85.18
2018-10-21T05:16:10.321Z,84.57
2018-10-21T05:17:14.814Z,84.67
2018-10-21T05:18:19.230Z,84.65
2018-10-21T05:19:23.638Z,84.80
2018-10-21T05:20:28.036Z,84.89
2018-10-21T05:21:32.435Z,85.26
2018-10-21T05:22:37.130Z,84.91
2018-10-21T05:23:41.513Z,85.30
2018-10-21T05:24:45.925Z,84.90
2018-10-21T05:25:50.299Z,84.49
2018-10-21T05:26:54.706Z,84.75
2018-10-21T05:28:00.014Z,84.94
2018-10-21T05:29:04.731Z,84.94
2018-10-21T05:30:10.354Z,85.20
2018-10-21T05:44:46.717Z,84.83
2018-10-21T05:45:51.144Z,85.12
2018-10-21T05:46:55.565Z,85.31
2018-10-21T05:47:59.956Z,85.06
2018-10-21T05:49:04.367Z,85.43
2018-10-21T05:50:10.262Z,85.09
2018-10-21T05:51:14.689Z,85.47
2018-10-21T05:52:19.120Z,84.98
2018-10-21T05:53:24.060Z,85.19
2018-10-21T05:54:28.470Z,85.07
2018-10-21T05:55:32.896Z,84.95
2018-10-21T05:56:37.842Z,84.91
2018-10-21T05:57:43.099Z,85.44
2018-10-21T05:58:47.784Z,85.35
2018-10-21T05:59:52.201Z,85.20
2018-10-21T06:00:56.613Z,85.69
2018-10-21T06:02:01.071Z,85.06
2018-10-21T06:03:05.896Z,85.06
2018-10-21T06:04:11.758Z,85.70
2018-10-21T06:05:21.398Z,85.28
2018-10-21T06:06:25.836Z,85.94
2018-10-21T06:07:30.208Z,85.66
2018-10-21T06:08:34.676Z,85.44
2018-10-21T06:09:39.565Z,85.64
2018-10-21T06:10:44.572Z,86.00
2018-10-21T06:11:49.110Z,85.46
2018-10-21T06:12:54.643Z,85.62
2018-10-21T06:13:59.168Z,85.88
2018-10-21T06:15:03.696Z,85.94
2018-10-21T06:16:09.877Z,86.33
2018-10-21T06:17:18.010Z,85.88
2018-10-21T06:18:26.149Z,85.99
2018-10-21T06:19:36.092Z,85.62
2018-10-21T06:20:58.393Z,85.74
2018-10-21T06:22:03.496Z,86.02
2018-10-21T06:23:08.569Z,85.86
2018-10-21T06:24:13.057Z,85.94
2018-10-21T06:25:17.552Z,86.29
2018-10-21T06:26:22.062Z,85.72
2018-10-21T06:27:26.565Z,86.02
2018-10-21T06:28:31.629Z,85.90
2018-10-21T06:29:36.072Z,86.00
2018-10-21T06:30:40.497Z,85.55
2018-10-21T06:31:44.916Z,85.25
2018-10-21T06:32:49.437Z,85.32
2018-10-21T06:33:53.940Z,84.87
2018-10-21T06:34:59.369Z,84.82
2018-10-21T06:36:05.044Z,84.55
2018-10-21T06:37:10.284Z,84.43
2018-10-21T06:38:15.527Z,84.15
2018-10-21T06:39:19.957Z,84.38
2018-10-21T06:40:24.389Z,83.96
2018-10-21T06:41:28.954Z,83.49
2018-10-21T06:42:33.915Z,83.13
2018-10-21T06:43:38.369Z,82.85
2018-10-21T06:44:42.796Z,82.78
2018-10-21T06:45:47.341Z,81.97
2018-10-21T06:46:52.553Z,81.82
2018-10-21T06:47:57.146Z,80.94
2018-10-21T06:49:01.648Z,80.63
2018-10-21T06:50:07.255Z,79.51
2018-10-21T06:51:11.774Z,79.07
2018-10-21T06:52:16.280Z,78.02
2018-10-21T06:53:21.117Z,77.16
2018-10-21T06:54:25.667Z,75.96
2018-10-21T06:55:30.171Z,75.23
2018-10-21T06:56:34.733Z,74.53
2018-10-21T06:57:39.106Z,73.46
2018-10-21T06:58:43.548Z,72.63
2018-10-21T06:59:48.516Z,71.34
2018-10-21T07:00:53.199Z,70.36
2018-10-21T07:01:57.668Z,69.03
2018-10-21T07:03:03.487Z,68.21
2018-10-21T07:04:08.497Z,67.29
2018-10-21T07:05:22.003Z,66.95
2018-10-21T07:06:28.520Z,66.44
2018-10-21T07:07:32.911Z,66.05
2018-10-21T07:08:38.492Z,65.33
2018-10-21T07:09:45.464Z,65.46
2018-10-21T07:10:50.058Z,65.01
2018-10-21T07:11:55.730Z,64.66
2018-10-21T07:13:00.482Z,64.11
2018-10-21T07:14:06.812Z,62.76
2018-10-21T07:15:13.030Z,61.27
2018-10-21T07:16:18.319Z,59.98
2018-10-21T07:17:23.245Z,59.33
2018-10-21T07:18:27.919Z,59.06
2018-10-21T07:19:32.872Z,58.62
2018-10-21T07:20:38.711Z,58.00
2018-10-21T07:21:43.600Z,57.32
2018-10-21T07:22:49.184Z,57.07
2018-10-21T07:23:54.431Z,57.93
2018-10-21T07:25:01.280Z,57.66
2018-10-21T07:26:09.858Z,56.69
2018-10-21T07:27:14.721Z,55.77
2018-10-21T07:28:20.619Z,55.09
2018-10-21T07:29:25.720Z,54.39
2018-10-21T07:30:31.626Z,53.36
2018-10-21T07:31:38.211Z,52.81
2018-10-21T07:32:44.451Z,52.34
2018-10-21T07:33:52.626Z,52.16
2018-10-21T07:34:57.334Z,51.77
2018-10-21T07:36:02.823Z,51.44
2018-10-21T07:37:13.220Z,51.54
2018-10-21T07:38:17.715Z,51.69
2018-10-21T07:39:22.297Z,51.33
2018-10-21T07:40:27.559Z,50.88
2018-10-21T07:41:33.998Z,50.62
2018-10-21T07:42:38.391Z,50.54
2018-10-21T07:43:44.471Z,50.43
2018-10-21T07:44:48.979Z,50.63
2018-10-21T07:45:53.458Z,50.13
2018-10-21T07:46:58.104Z,49.76
2018-10-21T07:48:03.209Z,49.38
2018-10-21T07:49:07.914Z,49.12
2018-10-21T07:50:13.423Z,48.92
2018-10-21T07:51:17.846Z,48.18
2018-10-21T07:52:22.810Z,47.34
2018-10-21T07:53:27.370Z,46.85
2018-10-21T07:54:31.874Z,45.84
2018-10-21T07:55:36.739Z,45.34
2018-10-21T07:56:41.576Z,44.69
2018-10-21T07:57:46.250Z,44.58
2018-10-21T07:58:50.727Z,44.81
2018-10-21T07:59:55.164Z,45.10
2018-10-21T08:00:59.638Z,44.50
2018-10-21T08:02:04.864Z,44.74
2018-10-21T08:03:10.070Z,43.35
2018-10-21T08:04:14.635Z,42.18
2018-10-21T08:05:27.635Z,41.99
2018-10-21T08:06:40.849Z,41.52
2018-10-21T08:07:50.841Z,41.36
2018-10-21T08:08:57.339Z,40.53
2018-10-21T08:10:04.502Z,41.09
2018-10-21T08:11:09.754Z,40.92
2018-10-21T08:12:15.196Z,41.01
2018-10-21T08:13:20.997Z,40.69
2018-10-21T08:14:26.057Z,41.61
2018-10-21T08:15:30.570Z,40.99
2018-10-21T08:16:36.179Z,40.89
2018-10-21T08:17:40.731Z,40.46
2018-10-21T08:18:46.245Z,40.11
2018-10-21T08:19:59.326Z,38.89
2018-10-21T08:21:04.627Z,38.53
2018-10-21T08:22:10.329Z,37.83
2018-10-21T08:23:20.692Z,37.74
2018-10-21T08:24:25.613Z,35.88
2018-10-21T08:25:30.711Z,35.68
2018-10-21T08:26:37.253Z,35.85
2018-10-21T08:27:42.182Z,35.05
2018-10-21T08:28:49.789Z,35.39
2018-10-21T08:29:58.674Z,35.31
2018-10-21T08:31:06.873Z,35.79
2018-10-21T08:32:11.988Z,36.05
2018-10-21T08:33:16.503Z,35.84
2018-10-21T08:34:21.806Z,36.00
2018-10-21T08:35:27.714Z,36.29
2018-10-21T08:36:33.247Z,36.80
2018-10-21T08:37:39.656Z,37.11
2018-10-21T08:38:45.598Z,36.97
2018-10-21T08:39:51.428Z,36.83
2018-10-21T08:40:56.780Z,36.19
2018-10-21T08:42:02.467Z,36.10
2018-10-21T08:43:07.838Z,35.67
2018-10-21T08:44:15.064Z,36.26
2018-10-21T08:45:26.613Z,37.39
2018-10-21T08:46:34.295Z,36.76
2018-10-21T08:47:41.215Z,36.48
2018-10-21T08:48:47.004Z,37.28
2018-10-21T08:49:52.154Z,37.58
2018-10-21T08:50:56.870Z,37.38
2018-10-21T08:52:02.913Z,37.34
2018-10-21T08:53:11.302Z,36.98
2018-10-21T08:54:16.674Z,36.37
2018-10-21T08:55:25.288Z,36.18
2018-10-21T08:56:31.391Z,36.30
2018-10-21T08:57:36.841Z,36.95
2018-10-21T08:58:41.995Z,36.81
2018-10-21T08:59:50.924Z,36.89
2018-10-21T09:00:58.263Z,36.99
2018-10-21T09:02:05.968Z,36.65
2018-10-21T09:03:11.236Z,36.18
2018-10-21T09:04:17.249Z,35.27
2018-10-21T09:05:24.158Z,35.07
2018-10-21T09:06:28.888Z,34.06
2018-10-21T09:07:33.638Z,33.22
2018-10-21T09:08:39.510Z,33.53
2018-10-21T09:09:44.479Z,32.13
2018-10-21T09:10:49.592Z,32.25
2018-10-21T09:11:55.444Z,31.64
2018-10-21T09:13:01.852Z,32.18
2018-10-21T09:14:07.408Z,33.47
2018-10-21T09:15:20.011Z,33.25
2018-10-21T09:16:27.007Z,32.74
2018-10-21T09:17:36.603Z,33.68
2018-10-21T09:18:41.334Z,33.21
2018-10-21T09:19:48.467Z,33.78
2018-10-21T09:20:54.881Z,34.39
2018-10-21T09:22:01.226Z,35.87
2018-10-21T09:23:07.948Z,36.21
2018-10-21T09:24:13.833Z,36.41
2018-10-21T09:25:20.813Z,36.70
2018-10-21T09:26:27.289Z,37.44
2018-10-21T09:27:34.166Z,37.67
2018-10-21T09:28:43.055Z,37.69
2018-10-21T09:29:49.332Z,37.02
2018-10-21T09:30:54.937Z,36.04
2018-10-21T09:32:01.180Z,35.92
2018-10-21T09:33:06.470Z,35.16
2018-10-21T09:34:13.973Z,34.13
2018-10-21T09:35:21.615Z,33.34
2018-10-21T09:36:28.570Z,31.95
2018-10-21T09:37:35.250Z,32.14
2018-10-21T09:38:41.719Z,30.84
2018-10-21T09:39:47.377Z,31.59
2018-10-21T09:40:52.494Z,30.40
2018-10-21T09:41:57.852Z,30.40
2018-10-21T09:43:06.111Z,30.01
2018-10-21T09:44:13.929Z,29.09
2018-10-21T09:45:20.657Z,28.75
2018-10-21T09:46:28.864Z,28.46
2018-10-21T09:47:38.784Z,28.28
2018-10-21T09:48:44.905Z,27.92
2018-10-21T09:49:51.430Z,28.40
2018-10-21T09:50:57.669Z,27.89
2018-10-21T09:52:06.122Z,26.53
2018-10-21T09:53:12.269Z,27.03
2018-10-21T09:54:20.083Z,27.50
2018-10-21T09:55:25.751Z,28.74
2018-10-21T09:56:32.202Z,28.77
2018-10-21T09:57:37.806Z,27.67
2018-10-21T09:58:44.163Z,28.22
2018-10-21T09:59:49.250Z,27.12
2018-10-21T10:01:00.195Z,26.87
2018-10-21T10:02:10.022Z,28.46
2018-10-21T10:03:15.806Z,29.43
2018-10-21T10:04:21.314Z,31.42
2018-10-21T10:05:27.135Z,32.11
2018-10-21T10:06:32.061Z,32.54
2018-10-21T10:07:38.276Z,33.44
2018-10-21T10:08:44.473Z,33.77
2018-10-21T10:09:49.672Z,33.08
2018-10-21T10:10:54.343Z,32.93
2018-10-21T10:12:00.325Z,32.50
2018-10-21T10:13:05.429Z,32.61
2018-10-21T10:14:10.247Z,33.01
2018-10-21T10:15:15.642Z,34.02
2018-10-21T10:16:21.368Z,35.78
2018-10-21T10:17:27.720Z,37.23
2018-10-21T10:18:35.058Z,38.87
2018-10-21T10:19:40.915Z,40.48
2018-10-21T10:20:46.649Z,41.44
2018-10-21T10:21:52.358Z,41.95
2018-10-21T10:22:59.330Z,42.17
2018-10-21T10:24:06.795Z,44.44
2018-10-21T10:25:13.166Z,44.55
2018-10-21T10:26:19.208Z,46.31
2018-10-21T10:27:25.832Z,46.53
2018-10-21T10:28:35.962Z,46.27
2018-10-21T10:29:40.766Z,45.73
2018-10-21T10:30:47.195Z,44.44
2018-10-21T10:43:50.049Z,44.05
2018-10-21T10:44:54.935Z,42.54
2018-10-21T10:46:01.329Z,41.98
2018-10-21T10:47:06.747Z,42.59
2018-10-21T10:48:11.417Z,43.53
2018-10-21T10:49:17.661Z,44.04
2018-10-21T10:50:23.092Z,43.70
2018-10-21T10:51:29.543Z,42.44
2018-10-21T10:52:36.491Z,42.13
2018-10-21T10:53:42.589Z,41.87
2018-10-21T10:54:50.592Z,41.84
2018-10-21T10:55:59.530Z,40.73
2018-10-21T10:57:06.172Z,39.74
2018-10-21T10:58:12.636Z,37.19
2018-10-21T10:59:19.055Z,37.16
2018-10-21T11:00:23.932Z,37.80
2018-10-21T11:01:30.146Z,38.19
2018-10-21T11:02:35.157Z,38.81
2018-10-21T11:03:39.804Z,39.29
2018-10-21T11:04:45.328Z,39.57
2018-10-21T11:05:54.008Z,38.95
2018-10-21T11:06:59.044Z,38.55
2018-10-21T11:08:07.692Z,38.06
2018-10-21T11:09:17.235Z,36.47
2018-10-21T11:10:26.474Z,35.68
2018-10-21T11:11:31.123Z,33.96
2018-10-21T11:12:38.034Z,35.30
2018-10-21T11:13:42.466Z,34.22
2018-10-21T11:14:49.437Z,33.94
2018-10-21T11:15:55.123Z,32.98
2018-10-21T11:16:59.885Z,34.19
2018-10-21T11:19:30.458Z,35.49
2018-10-21T11:20:37.125Z,37.07
2018-10-21T11:21:43.159Z,37.59
2018-10-21T11:22:48.495Z,38.04
2018-10-21T11:23:56.912Z,37.74
2018-10-21T11:25:03.498Z,37.32
2018-10-21T11:26:08.621Z,37.08
2018-10-21T11:27:15.380Z,34.87
2018-10-21T11:28:20.481Z,34.80
2018-10-21T11:29:27.685Z,34.75
2018-10-21T11:30:33.535Z,35.16
2018-10-21T11:31:40.271Z,35.94
2018-10-21T11:32:45.119Z,36.01
2018-10-21T11:33:51.618Z,36.39
2018-10-21T11:34:58.363Z,36.39
2018-10-21T11:36:03.623Z,36.96
2018-10-21T11:37:08.858Z,37.54
2018-10-21T11:38:20.334Z,38.09
2018-10-21T11:39:30.164Z,38.84
2018-10-21T11:40:36.013Z,38.45
2018-10-21T11:41:43.052Z,38.50
2018-10-21T11:42:48.369Z,38.00
2018-10-21T11:43:53.993Z,38.32
2018-10-21T11:44:59.494Z,40.25
2018-10-21T11:46:05.697Z,41.04
2018-10-21T11:47:10.539Z,40.80
2018-10-21T11:48:15.205Z,41.03
2018-10-21T11:49:20.464Z,40.69
2018-10-21T11:50:28.270Z,40.13
2018-10-21T11:51:33.557Z,39.60
2018-10-21T11:52:38.244Z,40.11
2018-10-21T11:53:45.284Z,39.31
2018-10-21T11:54:50.038Z,39.73
2018-10-21T11:55:56.019Z,40.25
2018-10-21T11:57:01.497Z,41.29
2018-10-21T11:58:07.382Z,41.90
2018-10-21T11:59:12.139Z,41.90
2018-10-21T12:00:17.609Z,41.84
2018-10-21T12:01:22.728Z,41.36
2018-10-21T12:02:27.725Z,40.43
2018-10-21T12:03:33.328Z,41.15
2018-10-21T12:04:37.938Z,42.09
2018-10-21T12:05:44.778Z,42.06
2018-10-21T12:06:50.014Z,42.82
2018-10-21T12:07:58.078Z,42.41
2018-10-21T12:09:04.947Z,43.18
2018-10-21T12:10:10.025Z,42.65
2018-10-21T12:11:16.160Z,43.07
2018-10-21T12:12:22.312Z,41.95
2018-10-21T12:13:26.817Z,42.34
2018-10-21T12:14:33.627Z,41.76
2018-10-21T12:15:40.087Z,41.34
2018-10-21T12:16:45.618Z,41.42
2018-10-21T12:17:51.492Z,41.53
2018-10-21T12:18:56.596Z,40.96
2018-10-21T12:20:03.064Z,41.14
2018-10-21T12:21:15.164Z,41.11
2018-10-21T12:22:21.022Z,40.38
2018-10-21T12:23:26.088Z,40.72
2018-10-21T12:24:32.343Z,39.65
2018-10-21T12:25:38.515Z,39.53
2018-10-21T12:26:45.203Z,37.97
2018-10-21T12:27:50.204Z,37.20
2018-10-21T12:28:56.326Z,37.62
2018-10-21T12:30:02.123Z,37.56
2018-10-21T12:31:13.040Z,36.86
2018-10-21T12:32:19.944Z,36.07
2018-10-21T12:33:24.922Z,35.98
2018-10-21T12:34:30.330Z,36.46
2018-10-21T12:35:37.284Z,35.49
2018-10-21T12:36:42.075Z,35.53
2018-10-21T12:37:48.456Z,35.19
2018-10-21T12:38:55.609Z,35.98
2018-10-21T12:40:01.257Z,37.27
2018-10-21T12:41:06.027Z,37.23
2018-10-21T12:42:14.076Z,38.24
2018-10-21T12:43:18.777Z,38.04
2018-10-21T12:44:25.158Z,38.39
2018-10-21T12:45:30.353Z,38.57
2018-10-21T12:46:35.540Z,38.27
2018-10-21T12:47:40.420Z,38.62
2018-10-21T12:48:46.589Z,38.24
2018-10-21T12:49:51.087Z,38.73
2018-10-21T12:50:55.666Z,38.54
2018-10-21T12:52:01.028Z,38.38
2018-10-21T12:53:07.946Z,49.28
2018-10-21T12:54:13.263Z,47.96
2018-10-21T12:55:18.574Z,100.00
2018-10-21T12:56:37.152Z,37.14
2018-10-21T12:57:42.999Z,48.84
2018-10-21T12:58:50.374Z,49.91
2018-10-21T13:00:07.916Z,38.29
2018-10-21T13:01:15.901Z,49.02
2018-10-21T13:02:22.566Z,37.50
2018-10-21T13:03:28.457Z,37.97
2018-10-21T13:04:33.733Z,37.93
2018-10-21T13:05:42.248Z,100.00
2018-10-21T13:06:49.250Z,49.77
2018-10-21T13:07:57.360Z,38.54
2018-10-21T13:09:02.773Z,39.16
2018-10-21T13:10:07.894Z,100.00
2018-10-21T13:11:13.639Z,49.74
2018-10-21T13:12:20.973Z,48.90
2018-10-21T13:13:27.799Z,37.42
2018-10-21T13:14:34.607Z,38.08
2018-10-21T13:15:40.651Z,100.00
2018-10-21T13:16:46.036Z,38.28
2018-10-21T13:17:52.265Z,38.27
2018-10-21T13:18:57.772Z,38.48
2018-10-21T13:20:03.627Z,39.00
2018-10-21T13:21:08.903Z,38.77
2018-10-21T13:22:14.675Z,38.70
2018-10-21T13:23:22.112Z,38.60
2018-10-21T13:24:26.737Z,38.23
2018-10-21T13:25:33.184Z,38.34
2018-10-21T13:26:39.209Z,38.09
2018-10-21T13:27:44.808Z,37.41
2018-10-21T13:28:50.080Z,36.90
2018-10-21T13:29:59.085Z,36.25
2018-10-21T13:31:06.047Z,35.89
2018-10-21T13:32:12.138Z,36.03
2018-10-21T13:33:16.730Z,37.12
2018-10-21T13:34:22.562Z,37.54
2018-10-21T13:35:27.345Z,37.68
2018-10-21T13:36:32.222Z,37.88
2018-10-21T13:37:37.887Z,49.33
2018-10-21T13:38:44.072Z,100.00
2018-10-21T13:39:52.119Z,38.08
2018-10-21T13:40:58.139Z,38.30
2018-10-21T13:42:05.015Z,38.30
2018-10-21T13:43:11.464Z,50.07
2018-10-21T13:44:18.043Z,37.29
2018-10-21T13:45:24.305Z,38.01
2018-10-21T13:46:30.545Z,38.12
2018-10-21T13:47:37.859Z,38.87
2018-10-21T13:48:42.414Z,50.43
2018-10-21T13:49:47.413Z,50.07
2018-10-21T13:50:57.044Z,38.61
2018-10-21T13:52:05.169Z,39.30
2018-10-21T13:53:19.361Z,50.67
2018-10-21T13:54:27.787Z,39.68
2018-10-21T13:55:38.584Z,39.61
2018-10-21T13:56:49.890Z,39.46
2018-10-21T13:57:56.764Z,39.69
2018-10-21T13:59:06.644Z,39.27
2018-10-21T14:00:15.646Z,39.56
2018-10-21T14:01:29.650Z,39.68
2018-10-21T14:02:39.401Z,40.05
2018-10-21T14:03:56.656Z,40.14
2018-10-21T14:05:07.428Z,40.34
2018-10-21T14:06:14.814Z,40.75
2018-10-21T14:07:25.686Z,40.85
2018-10-21T14:08:35.840Z,40.45
2018-10-21T14:09:45.660Z,41.00
2018-10-21T14:10:54.063Z,41.15
2018-10-21T14:12:01.727Z,41.15
2018-10-21T14:13:08.728Z,40.68
2018-10-21T14:14:17.396Z,41.14
2018-10-21T14:15:24.458Z,40.23
2018-10-21T14:16:33.419Z,40.29
2018-10-21T14:17:42.392Z,40.05
2018-10-21T14:18:46.801Z,40.34
2018-10-21T14:19:53.996Z,40.29
2018-10-21T14:21:04.612Z,39.94
2018-10-21T14:22:13.770Z,40.97
2018-10-21T14:23:19.831Z,40.27
2018-10-21T14:24:27.766Z,40.73
2018-10-21T14:25:33.945Z,40.54
2018-10-21T14:26:41.857Z,39.82
2018-10-21T14:27:56.177Z,40.68
2018-10-21T14:29:02.854Z,40.66
2018-10-21T14:30:10.900Z,40.19
2018-10-21T14:31:17.699Z,40.39
2018-10-21T14:32:26.836Z,40.45
2018-10-21T14:33:32.780Z,39.71
2018-10-21T14:34:37.478Z,39.99